Map

Track Data

SID SEASON NUMBER BASIN SUBBASIN NAME ISO_TIME NATURE LAT LON WMO_WIND WMO_PRES WMO_AGENCY TRACK_TYPE DIST2LAND LANDFALL IFLAG USA_AGENCY USA_ATCF_ID USA_LAT USA_LON USA_RECORD USA_STATUS USA_WIND USA_PRES USA_SSHS USA_R34_NE USA_R34_SE USA_R34_SW USA_R34_NW USA_R50_NE USA_R50_SE USA_R50_SW USA_R50_NW USA_R64_NE USA_R64_SE USA_R64_SW USA_R64_NW USA_POCI USA_ROCI USA_RMW USA_EYE TOKYO_LAT TOKYO_LON TOKYO_GRADE TOKYO_WIND TOKYO_PRES TOKYO_R50_DIR TOKYO_R50_LONG TOKYO_R50_SHORT TOKYO_R30_DIR TOKYO_R30_LONG TOKYO_R30_SHORT TOKYO_LAND CMA_LAT CMA_LON CMA_CAT CMA_WIND CMA_PRES HKO_LAT HKO_LON HKO_CAT HKO_WIND HKO_PRES NEWDELHI_LAT NEWDELHI_LON NEWDELHI_GRADE NEWDELHI_WIND NEWDELHI_PRES NEWDELHI_CI NEWDELHI_DP NEWDELHI_POCI REUNION_LAT REUNION_LON REUNION_TYPE REUNION_WIND REUNION_PRES REUNION_TNUM REUNION_CI REUNION_RMW REUNION_R34_NE REUNION_R34_SE REUNION_R34_SW REUNION_R34_NW REUNION_R50_NE REUNION_R50_SE REUNION_R50_SW REUNION_R50_NW REUNION_R64_NE REUNION_R64_SE REUNION_R64_SW REUNION_R64_NW BOM_LAT BOM_LON BOM_TYPE BOM_WIND BOM_PRES BOM_TNUM BOM_CI BOM_RMW BOM_R34_NE BOM_R34_SE BOM_R34_SW BOM_R34_NW BOM_R50_NE BOM_R50_SE BOM_R50_SW BOM_R50_NW BOM_R64_NE BOM_R64_SE BOM_R64_SW BOM_R64_NW BOM_ROCI BOM_POCI BOM_EYE BOM_POS_METHOD BOM_PRES_METHOD NADI_LAT NADI_LON NADI_CAT NADI_WIND NADI_PRES WELLINGTON_LAT WELLINGTON_LON WELLINGTON_WIND WELLINGTON_PRES DS824_LAT DS824_LON DS824_STAGE DS824_WIND DS824_PRES TD9636_LAT TD9636_LON TD9636_STAGE TD9636_WIND TD9636_PRES TD9635_LAT TD9635_LON TD9635_WIND TD9635_PRES TD9635_ROCI NEUMANN_LAT NEUMANN_LON NEUMANN_CLASS NEUMANN_WIND NEUMANN_PRES MLC_LAT MLC_LON MLC_CLASS MLC_WIND MLC_PRES USA_GUST BOM_GUST BOM_GUST_PER REUNION_GUST REUNION_GUST_PER USA_SEAHGT USA_SEARAD_NE USA_SEARAD_SE USA_SEARAD_SW USA_SEARAD_NW STORM_SPEED STORM_DIR
1978168N14254 1978 38 EP MM CARLOTTA 1978-06-17 06:00:00 TS 13.7000 -106.100 20 hurdat_epa main 585 585 O________OO___ hurdat_epa EP031978 13.7000 -106.100 TD 20 -1 13.7000 -106.100 TC 20 13.7000 -106.100 1 20 10 270
1978168N14254 1978 38 EP MM CARLOTTA 1978-06-17 09:00:00 TS 13.6970 -106.629 main 612 612 P________PP___ EP031978 13.6951 -106.628 TD 22 -1 13.6951 -106.628 TC 22 13.7043 -106.634 1 22 11 270
1978168N14254 1978 38 EP MM CARLOTTA 1978-06-17 12:00:00 TS 13.7000 -107.200 25 hurdat_epa main 649 649 O________OO___ hurdat_epa EP031978 13.7000 -107.200 TD 25 -1 13.7000 -107.200 TC 25 13.7000 -107.200 1 25 12 271
1978168N14254 1978 38 EP MM CARLOTTA 1978-06-17 15:00:00 TS 13.7080 -107.838 main 690 690 P________PP___ EP031978 13.7150 -107.842 TD 25 -1 13.7150 -107.842 TC 25 13.6801 -107.819 1 27 13 269
1978168N14254 1978 38 EP MM CARLOTTA 1978-06-17 18:00:00 TS 13.6883 -108.493 25 hurdat_epa main 731 731 O________OP___ hurdat_epa EP031978 13.7000 -108.500 TD 25 -1 13.7000 -108.500 TC 25 13.6414 -108.467 1 30 13 265
1978168N14254 1978 38 EP MM CARLOTTA 1978-06-17 21:00:00 TS 13.6083 -109.119 main 776 776 P________PP___ EP031978 13.6149 -109.123 TD 30 -1 13.6149 -109.123 TC 30 13.5819 -109.106 1 32 12 261
1978168N14254 1978 38 EP MM CARLOTTA 1978-06-18 00:00:00 TS 13.5000 -109.700 35 hurdat_epa main 824 824 O________OO___ hurdat_epa EP031978 13.5000 -109.700 TS 35 0 13.5000 -109.700 TC 35 13.5000 -109.700 2 35 11 259
1978168N14254 1978 38 EP MM CARLOTTA 1978-06-18 03:00:00 TS 13.4076 -110.230 main 867 867 P________PP___ EP031978 13.4074 -110.230 TS 35 0 13.4074 -110.230 TC 35 13.4083 -110.229 2 35 10 258
1978168N14254 1978 38 EP MM CARLOTTA 1978-06-18 06:00:00 TS 13.2989 -110.701 35 hurdat_epa main 912 912 O________OP___ hurdat_epa EP031978 13.3000 -110.700 TS 35 0 13.3000 -110.700 TC 35 13.2945 -110.705 2 35 9 255
1978168N14254 1978 38 EP MM CARLOTTA 1978-06-18 09:00:00 TS 13.1697 -111.136 main 950 950 P________PP___ EP031978 13.1725 -111.137 TS 35 0 13.1725 -111.137 TC 35 13.1585 -111.129 2 35 8 249
1978168N14254 1978 38 EP MM CARLOTTA 1978-06-18 12:00:00 TS 13.0000 -111.500 35 hurdat_epa main 996 996 O________OO___ hurdat_epa EP031978 13.0000 -111.500 TS 35 0 13.0000 -111.500 TC 35 13.0000 -111.500 2 35 7 237
1978168N14254 1978 38 EP MM CARLOTTA 1978-06-18 15:00:00 TS 12.7609 -111.775 main 1035 1035 P________PP___ EP031978 12.7499 -111.765 TS 37 0 12.7499 -111.765 TC 37 12.8048 -111.817 2 37 7 226
1978168N14254 1978 38 EP MM CARLOTTA 1978-06-18 18:00:00 TS 12.5184 -112.017 40 hurdat_epa main 1074 1074 O________OP___ hurdat_epa EP031978 12.5000 -112.000 TS 40 0 12.5000 -112.000 TC 40 12.5919 -112.087 2 40 7 231
1978168N14254 1978 38 EP MM CARLOTTA 1978-06-18 21:00:00 TS 12.3446 -112.296 main 1113 1113 P________PP___ EP031978 12.3350 -112.285 TS 42 0 12.3350 -112.285 TC 42 12.3830 -112.339 2 42 7 241
1978168N14254 1978 38 EP MM CARLOTTA 1978-06-19 00:00:00 TS 12.2000 -112.600 45 hurdat_epa main 1144 1144 O________OO___ hurdat_epa EP031978 12.2000 -112.600 TS 45 0 12.2000 -112.600 TC 45 12.2000 -112.600 2 45 7 244
1978168N14254 1978 38 EP MM CARLOTTA 1978-06-19 03:00:00 TS 12.0382 -112.944 main 1183 1183 P________PP___ EP031978 12.0350 -112.950 TS 55 0 12.0350 -112.950 TC 55 12.0510 -112.919 2 50 7 246
1978168N14254 1978 38 EP MM CARLOTTA 1978-06-19 06:00:00 TS 11.9065 -113.290 65 hurdat_epa main 1222 1222 O________OP___ hurdat_epa EP031978 11.9000 -113.300 HU 65 1 11.9000 -113.300 TC 65 11.9326 -113.250 2 55 7 252
1978168N14254 1978 38 EP MM CARLOTTA 1978-06-19 09:00:00 TS 11.8315 -113.602 main 1252 1252 P________PP___ EP031978 11.8274 -113.607 HU 65 1 11.8274 -113.607 TC 65 11.8478 -113.581 2 60 6 260
1978168N14254 1978 38 EP MM CARLOTTA 1978-06-19 12:00:00 TS 11.8000 -113.900 65 hurdat_epa main 1275 1275 O________OO___ hurdat_epa EP031978 11.8000 -113.900 HU 65 1 11.8000 -113.900 TC 65 11.8000 -113.900 4 65 6 265
1978168N14254 1978 38 EP MM CARLOTTA 1978-06-19 15:00:00 TS 11.7834 -114.209 main 1299 1299 P________PP___ EP031978 11.7850 -114.208 HU 67 1 11.7850 -114.208 TC 67 11.7769 -114.214 4 66 6 270
1978168N14254 1978 38 EP MM CARLOTTA 1978-06-19 18:00:00 TS 11.7980 -114.502 70 hurdat_epa main 1322 1322 O________OP___ hurdat_epa EP031978 11.8000 -114.500 HU 70 1 11.8000 -114.500 TC 70 11.7900 -114.510 4 67 6 275
1978168N14254 1978 38 EP MM CARLOTTA 1978-06-19 21:00:00 TS 11.8346 -114.779 main 1342 1335 P________PP___ EP031978 11.8350 -114.780 HU 70 1 11.8350 -114.780 TC 70 11.8331 -114.776 4 68 5 282
1978168N14254 1978 38 EP MM CARLOTTA 1978-06-20 00:00:00 TS 11.9000 -115.000 70 hurdat_epa main 1339 1333 O________OO___ hurdat_epa EP031978 11.9000 -115.000 HU 70 1 11.9000 -115.000 TC 70 11.9000 -115.000 4 70 4 295
1978168N14254 1978 38 EP MM CARLOTTA 1978-06-20 03:00:00 TS 11.9863 -115.118 main 1333 1327 P________PP___ EP031978 11.9925 -115.115 HU 85 2 11.9925 -115.115 TC 85 11.9618 -115.128 4 78 3 314
1978168N14254 1978 38 EP MM CARLOTTA 1978-06-20 06:00:00 TS 12.0894 -115.204 100 hurdat_epa main 1327 1322 O________OP___ hurdat_epa EP031978 12.1000 -115.200 HU 100 3 12.1000 -115.200 TC 100 12.0470 -115.220 4 87 3 315
1978168N14254 1978 38 EP MM CARLOTTA 1978-06-20 09:00:00 TS 12.1797 -115.310 main 1322 1316 P________PP___ EP031978 12.1849 -115.305 HU 102 3 12.1849 -115.305 TC 102 12.1587 -115.328 4 96 4 306
1978168N14254 1978 38 EP MM CARLOTTA 1978-06-20 12:00:00 TS 12.3000 -115.500 105 hurdat_epa main 1321 1315 O________OO___ hurdat_epa EP031978 12.3000 -115.500 HU 105 3 12.3000 -115.500 TC 105 12.3000 -115.500 4 105 6 299
1978168N14254 1978 38 EP MM CARLOTTA 1978-06-20 15:00:00 TS 12.4824 -115.860 main 1320 1315 P________PP___ EP031978 12.4851 -115.870 HU 105 3 12.4851 -115.870 TC 105 12.4716 -115.819 4 106 9 297
1978168N14254 1978 38 EP MM CARLOTTA 1978-06-20 18:00:00 TS 12.6941 -116.281 105 hurdat_epa main 1321 1316 O________OP___ hurdat_epa EP031978 12.7000 -116.300 HU 105 3 12.7000 -116.300 TC 105 12.6705 -116.205 4 107 9 298
1978168N14254 1978 38 EP MM CARLOTTA 1978-06-20 21:00:00 TS 12.8968 -116.661 main 1323 1316 P________PP___ EP031978 12.9000 -116.673 HU 107 3 12.9000 -116.673 TC 107 12.8841 -116.613 4 108 8 300
1978168N14254 1978 38 EP MM CARLOTTA 1978-06-21 00:00:00 TS 13.1000 -117.000 110 hurdat_epa main 1322 1315 O________OO___ hurdat_epa EP031978 13.1000 -117.000 HU 110 3 13.1000 -117.000 TC 110 13.1000 -117.000 4 110 7 305
1978168N14254 1978 38 EP MM CARLOTTA 1978-06-21 03:00:00 TS 13.3031 -117.264 main 1321 1312 P________PP___ EP031978 13.2999 -117.258 HU 110 3 13.2999 -117.258 TC 110 13.3159 -117.292 4 111 6 309
1978168N14254 1978 38 EP MM CARLOTTA 1978-06-21 06:00:00 TS 13.5059 -117.512 110 hurdat_epa main 1315 1310 O________OP___ hurdat_epa EP031978 13.5000 -117.500 HU 110 3 13.5000 -117.500 TC 110 13.5295 -117.558 4 112 7 310
1978168N14254 1978 38 EP MM CARLOTTA 1978-06-21 09:00:00 TS 13.7236 -117.780 main 1317 1308 P________PP___ EP031978 13.7224 -117.770 HU 112 3 13.7224 -117.770 TC 112 13.7284 -117.820 4 113 7 305
1978168N14254 1978 38 EP MM CARLOTTA 1978-06-21 12:00:00 TS 13.9000 -118.100 115 hurdat_epa main 1319 1319 O________OO___ hurdat_epa EP031978 13.9000 -118.100 HU 115 4 13.9000 -118.100 TC 115 13.9000 -118.100 4 115 8 288
1978168N14254 1978 38 EP MM CARLOTTA 1978-06-21 15:00:00 TS 13.9687 -118.537 main 1339 1339 P________PP___ EP031978 13.9577 -118.558 HU 115 4 13.9577 -118.558 TC 115 14.0127 -118.453 4 115 8 278
1978168N14254 1978 38 EP MM CARLOTTA 1978-06-21 18:00:00 TS 14.0201 -118.965 115 hurdat_epa main 1374 1373 O________OP___ hurdat_epa EP031978 14.0000 -119.000 HU 115 4 14.0000 -119.000 TC 115 14.1003 -118.823 4 115 7 284
1978168N14254 1978 38 EP MM CARLOTTA 1978-06-21 21:00:00 TS 14.1394 -119.260 main 1388 1380 P________PP___ EP031978 14.1274 -119.280 HU 115 4 14.1274 -119.280 TC 115 14.1877 -119.181 4 115 6 298
1978168N14254 1978 38 EP MM CARLOTTA 1978-06-22 00:00:00 TS 14.3000 -119.500 115 hurdat_epa main 1387 1387 O________OO___ hurdat_epa EP031978 14.3000 -119.500 HU 115 4 14.3000 -119.500 TC 115 14.3000 -119.500 4 115 6 306
1978168N14254 1978 38 EP MM CARLOTTA 1978-06-22 03:00:00 TS 14.4833 -119.753 main 1394 1383 P________PP___ EP031978 14.4925 -119.765 HU 112 3 14.4925 -119.765 TC 112 14.4463 -119.707 4 115 6 310
1978168N14254 1978 38 EP MM CARLOTTA 1978-06-22 06:00:00 TS 14.6848 -119.976 110 hurdat_epa main 1390 1378 O________OP___ hurdat_epa EP031978 14.7000 -120.000 HU 110 3 14.7000 -120.000 TC 110 14.6242 -119.879 4 115 5 317
1978168N14254 1978 38 EP MM CARLOTTA 1978-06-22 09:00:00 TS 14.8639 -120.114 main 1378 1373 P________PP___ EP031978 14.8698 -120.128 HU 112 3 14.8698 -120.128 TC 112 14.8400 -120.061 4 115 5 323
1978168N14254 1978 38 EP MM CARLOTTA 1978-06-22 12:00:00 TS 15.1000 -120.300 115 hurdat_epa main 1373 1359 O________OO___ hurdat_epa EP031978 15.1000 -120.300 HU 115 4 15.1000 -120.300 TC 115 15.1000 -120.300 4 115 8 319
1978168N14254 1978 38 EP MM CARLOTTA 1978-06-22 15:00:00 TS 15.4711 -120.660 main 1364 1354 P________PP___ EP031978 15.4850 -120.655 HU 112 3 15.4850 -120.655 TC 112 15.4155 -120.680 4 112 11 315
1978168N14254 1978 38 EP MM CARLOTTA 1978-06-22 18:00:00 TS 15.8741 -121.104 110 hurdat_epa main 1358 1357 O________OP___ hurdat_epa EP031978 15.9000 -121.100 HU 110 3 15.9000 -121.100 TC 110 15.7707 -121.119 4 110 11 310
1978168N14254 1978 38 EP MM CARLOTTA 1978-06-22 21:00:00 TS 16.2062 -121.573 main 1371 1370 P________PP___ EP031978 16.2226 -121.573 HU 107 3 16.2226 -121.573 TC 107 16.1405 -121.574 4 107 11 306
1978168N14254 1978 38 EP MM CARLOTTA 1978-06-23 00:00:00 TS 16.5000 -122.000 105 hurdat_epa main 1377 1377 O________OO___ hurdat_epa EP031978 16.5000 -122.000 HU 105 3 16.5000 -122.000 TC 105 16.5000 -122.000 4 105 9 310
1978168N14254 1978 38 EP MM CARLOTTA 1978-06-23 03:00:00 TS 16.7614 -122.272 main 1378 1371 P________PP___ EP031978 16.7423 -122.265 HU 97 3 16.7423 -122.265 TC 97 16.8378 -122.300 4 97 7 317
1978168N14254 1978 38 EP MM CARLOTTA 1978-06-23 06:00:00 TS 17.0317 -122.514 90 hurdat_epa main 1379 1371 O________OP___ hurdat_epa EP031978 17.0000 -122.500 HU 90 2 17.0000 -122.500 TC 90 17.1587 -122.571 4 90 8 320
1978168N14254 1978 38 EP MM CARLOTTA 1978-06-23 09:00:00 TS 17.3759 -122.821 main 1374 1374 P________PP___ EP031978 17.3574 -122.812 HU 82 1 17.3574 -122.812 TC 82 17.4502 -122.856 4 82 9 316
1978168N14254 1978 38 EP MM CARLOTTA 1978-06-23 12:00:00 TS 17.7000 -123.200 75 hurdat_epa main 1387 1387 O________OO___ hurdat_epa EP031978 17.7000 -123.200 HU 75 1 17.7000 -123.200 TC 75 17.7000 -123.200 4 75 10 305
1978168N14254 1978 38 EP MM CARLOTTA 1978-06-23 15:00:00 TS 17.9319 -123.667 main 1410 1401 P________PP___ EP031978 17.9375 -123.670 HU 72 1 17.9375 -123.670 TC 72 17.9095 -123.652 4 71 10 293
1978168N14254 1978 38 EP MM CARLOTTA 1978-06-23 18:00:00 TS 18.0950 -124.194 70 hurdat_epa main 1426 1426 O________OP___ hurdat_epa EP031978 18.1000 -124.200 HU 70 1 18.1000 -124.200 TC 70 18.0751 -124.168 4 67 11 285
1978168N14254 1978 38 EP MM CARLOTTA 1978-06-23 21:00:00 TS 18.2125 -124.733 main 1452 1452 P________PP___ EP031978 18.2148 -124.735 HU 65 1 18.2148 -124.735 TC 65 18.2031 -124.724 4 63 11 281
1978168N14254 1978 38 EP MM CARLOTTA 1978-06-24 00:00:00 TS 18.3000 -125.300 60 hurdat_epa main 1486 1486 O________OO___ hurdat_epa EP031978 18.3000 -125.300 TS 60 0 18.3000 -125.300 TC 60 18.3000 -125.300 2 60 11 280
1978168N14254 1978 38 EP MM CARLOTTA 1978-06-24 03:00:00 TS 18.4043 -125.887 main 1522 1522 P________PP___ EP031978 18.4149 -125.900 TS 57 0 18.4149 -125.900 TC 57 18.3616 -125.837 2 57 11 279
1978168N14254 1978 38 EP MM CARLOTTA 1978-06-24 06:00:00 TS 18.4797 -126.478 55 hurdat_epa main 1560 1560 O________OP___ hurdat_epa EP031978 18.5000 -126.500 TS 55 0 18.5000 -126.500 TC 55 18.3987 -126.392 2 55 11 274
1978168N14254 1978 38 EP MM CARLOTTA 1978-06-24 09:00:00 TS 18.4750 -127.029 main 1598 1598 P________PP___ EP031978 18.4846 -127.043 TS 52 0 18.4846 -127.043 TC 52 18.4364 -126.975 2 52 11 271
1978168N14254 1978 38 EP MM CARLOTTA 1978-06-24 12:00:00 TS 18.5000 -127.600 50 hurdat_epa main 1646 1646 O________OO___ hurdat_epa EP031978 18.5000 -127.600 TS 50 0 18.5000 -127.600 TC 50 18.5000 -127.600 2 50 11 280
1978168N14254 1978 38 EP MM CARLOTTA 1978-06-24 15:00:00 TS 18.6775 -128.221 main 1680 1680 P________PP___ EP031978 18.6847 -128.212 TS 45 0 18.6847 -128.212 TC 45 18.6489 -128.257 2 46 13 287
1978168N14254 1978 38 EP MM CARLOTTA 1978-06-24 18:00:00 TS 18.8842 -128.912 40 hurdat_epa main 1724 1724 O________OP___ hurdat_epa EP031978 18.9000 -128.900 TS 40 0 18.9000 -128.900 TC 40 18.8212 -128.959 2 42 14 284
1978168N14254 1978 38 EP MM CARLOTTA 1978-06-24 21:00:00 TS 19.0144 -129.677 main 1785 1785 P________PP___ EP031978 19.0223 -129.670 TS 37 0 19.0223 -129.670 TC 37 18.9829 -129.706 2 38 15 278
1978168N14254 1978 38 EP MM CARLOTTA 1978-06-25 00:00:00 TS 19.1000 -130.500 35 hurdat_epa main 1847 1847 O________OO___ hurdat_epa EP031978 19.1000 -130.500 TS 35 0 19.1000 -130.500 TC 35 19.1000 -130.500 2 35 16 276
1978168N14254 1978 38 EP MM CARLOTTA 1978-06-25 03:00:00 TS 19.1731 -131.335 main 1911 1911 P________PP___ EP031978 19.1796 -131.335 TS 30 -1 19.1796 -131.335 TC 30 19.1471 -131.337 2 32 16 273
1978168N14254 1978 38 EP MM CARLOTTA 1978-06-25 06:00:00 TS 19.1895 -132.201 25 hurdat_epa main 1991 1991 O________OP___ hurdat_epa EP031978 19.2000 -132.200 TD 25 -1 19.2000 -132.200 TC 25 19.1338 -132.207 2 30 17 267
1978168N14254 1978 38 EP MM CARLOTTA 1978-06-25 09:00:00 TS 19.0975 -133.107 main 2077 2077 P________PP___ EP031978 19.0999 -133.108 TD 25 -1 19.0999 -133.108 TC 25 19.0785 -133.098 2 27 17 264
1978168N14254 1978 38 EP MM CARLOTTA 1978-06-25 12:00:00 TS 19.0000 -134.000 25 hurdat_epa main 2165 2099 O________OO___ hurdat_epa EP031978 19.0000 -134.000 TD 25 -1 19.0000 -134.000 TC 25 19.0000 -134.000 1 25 16 267
1978168N14254 1978 38 EP MM CARLOTTA 1978-06-25 15:00:00 TS 19.0130 -134.822 main 2099 2014 P________P____ EP031978 19.0130 -134.822 TD 22 -1 19.0130 -134.822 TC 22 1 15 274
1978168N14254 1978 38 EP MM CARLOTTA 1978-06-25 18:00:00 TS 19.1000 -135.600 20 hurdat_epa main 2014 O________O____ hurdat_epa EP031978 19.1000 -135.600 TD 20 -1 19.1000 -135.600 TC 20 1 15 277

About IBTrACS Database

This database is a web-friendly format of International Best Track Archive for Climate Stewardship (IBTrACS), a global best track data archive curated by NOAA dating back to 1842.

Updated: 2021-10-08